createdAt,value
2024-01-12T00:01:55.192Z,169.98
2024-01-12T00:04:21.640Z,171.77
2024-01-12T00:06:50.129Z,176.63
2024-01-12T00:09:18.964Z,172.48
2024-01-12T00:11:45.668Z,169.95
2024-01-12T00:14:35.523Z,177.85
2024-01-12T00:17:01.937Z,169.60
2024-01-12T00:19:28.315Z,169.93
2024-01-12T00:21:56.120Z,168.77
2024-01-12T00:24:22.624Z,171.13
2024-01-12T00:26:50.335Z,167.25
2024-01-12T00:29:16.855Z,164.52
2024-01-12T00:31:43.284Z,170.10
2024-01-12T00:34:09.767Z,168.30
2024-01-12T00:36:36.160Z,172.63
2024-01-12T00:39:02.569Z,171.40
2024-01-12T00:41:29.204Z,171.80
2024-01-12T00:43:55.813Z,176.55
2024-01-12T00:46:22.302Z,175.77
2024-01-12T00:48:51.256Z,174.60
2024-01-12T00:51:18.818Z,172.43
2024-01-12T00:53:45.773Z,174.20
2024-01-12T00:56:12.273Z,174.23
2024-01-12T01:05:59.194Z,173.02
2024-01-12T01:08:25.817Z,178.70
2024-01-12T01:15:45.475Z,172.27
2024-01-12T01:18:12.388Z,168.55
2024-01-12T01:20:40.170Z,174.43
2024-01-12T01:23:06.636Z,170.60
2024-01-12T01:25:33.101Z,174.10
2024-01-12T01:27:59.559Z,170.23
2024-01-12T01:30:25.981Z,168.57
2024-01-12T01:32:52.590Z,171.68
2024-01-12T01:35:19.204Z,170.27
2024-01-12T01:37:45.976Z,171.93
2024-01-12T01:40:12.528Z,173.18
2024-01-12T01:42:39.707Z,176.45
2024-01-12T01:45:06.344Z,177.32
2024-01-12T01:47:33.085Z,172.20
2024-01-12T01:49:59.682Z,174.35
2024-01-12T01:52:26.909Z,174.23
2024-01-12T01:54:55.129Z,171.20
2024-01-12T01:57:22.152Z,173.63
2024-01-12T01:59:48.804Z,176.70
2024-01-12T02:02:15.668Z,174.13
2024-01-12T02:04:42.161Z,173.77
2024-01-12T02:07:08.778Z,171.55
2024-01-12T02:09:35.457Z,179.52
2024-01-12T02:12:05.278Z,171.55
2024-01-12T02:14:32.143Z,172.68
2024-01-12T02:16:59.001Z,171.60
2024-01-12T02:19:25.556Z,172.43
2024-01-12T02:21:52.099Z,173.30
2024-01-12T02:24:18.686Z,173.32
2024-01-12T02:26:45.441Z,175.75
2024-01-12T02:29:12.628Z,185.90
2024-01-12T02:31:39.914Z,178.45
2024-01-12T02:34:06.342Z,183.10
2024-01-12T02:36:32.782Z,179.70
2024-01-12T02:38:59.490Z,175.38
2024-01-12T02:41:26.185Z,177.48
2024-01-12T02:43:53.194Z,177.02
2024-01-12T02:46:19.714Z,176.27
2024-01-12T02:48:46.322Z,178.07
2024-01-12T02:51:12.817Z,175.10
2024-01-12T02:53:39.432Z,174.43
2024-01-12T02:56:05.993Z,172.65
2024-01-12T02:58:32.623Z,181.25
2024-01-12T03:01:00.676Z,172.73
2024-01-12T03:03:27.590Z,171.82
2024-01-12T03:05:57.129Z,183.48
2024-01-12T03:08:23.717Z,178.45
2024-01-12T03:10:50.314Z,181.55
2024-01-12T03:13:16.897Z,184.63
2024-01-12T03:15:43.390Z,176.15
2024-01-12T03:18:10.160Z,174.88
2024-01-12T03:20:36.950Z,175.82
2024-01-12T03:23:03.611Z,173.10
2024-01-12T03:25:30.154Z,184.55
2024-01-12T03:27:56.739Z,174.57
2024-01-12T03:30:23.422Z,178.43
2024-01-12T03:32:50.097Z,177.40
2024-01-12T03:35:16.958Z,183.48
2024-01-12T03:37:43.585Z,174.35
2024-01-12T03:40:10.539Z,188.68
2024-01-12T03:42:37.100Z,186.50
2024-01-12T03:45:04.074Z,175.63
2024-01-12T03:47:30.748Z,178.63
2024-01-12T03:49:57.635Z,176.02
2024-01-12T03:52:24.194Z,176.98
2024-01-12T03:54:50.637Z,170.88
2024-01-12T03:57:17.056Z,174.15
2024-01-12T03:59:46.170Z,176.45
2024-01-12T04:02:12.860Z,172.20
2024-01-12T04:04:41.547Z,175.52
2024-01-12T04:07:08.044Z,176.43
2024-01-12T04:09:34.583Z,185.68
2024-01-12T04:12:01.044Z,178.10
2024-01-12T04:14:27.513Z,179.45
2024-01-12T04:16:53.956Z,179.48
2024-01-12T04:19:20.571Z,175.18
2024-01-12T04:21:47.027Z,170.40
2024-01-12T04:24:13.421Z,175.95
2024-01-12T04:26:42.905Z,179.10
2024-01-12T04:29:09.401Z,176.85
2024-01-12T04:31:39.558Z,183.07
2024-01-12T04:34:06.135Z,180.00
2024-01-12T04:36:32.601Z,184.07
2024-01-12T04:38:59.044Z,183.88
2024-01-12T04:41:25.588Z,186.65
2024-01-12T04:43:51.976Z,198.05
2024-01-12T04:46:18.438Z,288.13
2024-01-12T04:48:44.963Z,214.82
2024-01-12T04:51:11.749Z,270.02
2024-01-12T04:53:38.550Z,282.13
2024-01-12T04:56:05.140Z,285.48
2024-01-12T04:58:31.567Z,296.48
2024-01-12T05:00:58.129Z,295.50
2024-01-12T05:03:24.909Z,289.75
2024-01-12T05:05:51.800Z,293.73
2024-01-12T05:08:18.403Z,290.08
2024-01-12T05:10:44.977Z,291.15
2024-01-12T05:15:37.997Z,282.98
2024-01-12T05:18:04.837Z,287.80
2024-01-12T05:20:31.482Z,284.35
2024-01-12T05:22:58.101Z,286.13
2024-01-12T05:25:24.659Z,285.17
2024-01-12T05:30:18.018Z,285.55
2024-01-12T05:32:45.449Z,286.40
2024-01-12T05:35:13.042Z,288.58
2024-01-12T05:37:41.575Z,313.58
2024-01-12T05:40:08.771Z,288.15
2024-01-12T05:42:35.311Z,289.05
2024-01-12T05:45:02.058Z,288.38
2024-01-12T05:47:28.711Z,282.02
2024-01-12T05:49:55.715Z,287.80
2024-01-12T05:52:22.319Z,282.70
2024-01-12T05:54:48.858Z,282.77
2024-01-12T05:57:16.474Z,273.88
2024-01-12T05:59:43.080Z,284.92
2024-01-12T06:02:14.732Z,281.42
2024-01-12T06:04:41.471Z,273.75
2024-01-12T06:07:08.125Z,288.73
2024-01-12T06:09:37.624Z,271.40
2024-01-12T06:12:04.486Z,282.20
2024-01-12T06:16:57.832Z,280.15
2024-01-12T06:19:27.020Z,279.35
2024-01-12T06:24:20.261Z,278.48
2024-01-12T06:34:41.043Z,276.05
2024-01-12T06:37:07.580Z,279.30
2024-01-12T06:39:34.413Z,279.55
2024-01-12T06:42:01.055Z,284.10
2024-01-12T06:44:27.561Z,287.42
2024-01-12T06:49:20.760Z,284.20
2024-01-12T06:51:47.856Z,282.50
2024-01-12T06:54:19.201Z,285.65
2024-01-12T06:59:13.287Z,288.88
2024-01-12T07:01:39.858Z,280.58
2024-01-12T07:04:06.454Z,289.20
2024-01-12T07:08:59.707Z,311.95
2024-01-12T07:11:26.268Z,295.63
2024-01-12T07:13:53.404Z,295.52
2024-01-12T07:16:20.085Z,296.50
2024-01-12T07:18:46.661Z,299.35
2024-01-12T07:21:13.336Z,307.35
2024-01-12T07:23:39.920Z,295.58
2024-01-12T07:26:06.505Z,267.98
2024-01-12T07:28:33.036Z,291.92
2024-01-12T07:30:59.631Z,301.40
2024-01-12T07:33:26.312Z,266.80
2024-01-12T07:35:52.866Z,177.35
2024-01-12T07:38:19.945Z,187.85
2024-01-12T07:40:48.305Z,257.45
2024-01-12T07:43:14.922Z,254.40
2024-01-12T07:45:41.395Z,245.20
2024-01-12T07:48:09.024Z,248.75
2024-01-12T07:50:35.650Z,242.90
2024-01-12T07:53:02.042Z,232.70
2024-01-12T07:55:28.645Z,249.93
2024-01-12T07:57:55.115Z,246.35
2024-01-12T08:00:21.537Z,240.65
2024-01-12T08:05:14.831Z,232.23
2024-01-12T08:07:41.371Z,233.02
2024-01-12T08:10:09.626Z,237.95
2024-01-12T08:12:36.546Z,234.32
2024-01-12T08:15:03.120Z,234.60
2024-01-12T08:17:29.610Z,237.57
2024-01-12T08:19:55.983Z,241.65
2024-01-12T08:22:22.422Z,235.43
2024-01-12T08:24:49.010Z,232.38
2024-01-12T08:27:17.114Z,236.68
2024-01-12T08:29:45.429Z,242.10
2024-01-12T08:32:12.947Z,241.50
2024-01-12T08:34:40.879Z,238.70
2024-01-12T08:37:10.512Z,237.73
2024-01-12T08:39:37.360Z,241.40
2024-01-12T08:42:04.003Z,237.18
2024-01-12T08:44:30.477Z,242.73
2024-01-12T08:46:57.219Z,243.00
2024-01-12T08:49:23.813Z,241.70
2024-01-12T08:54:17.460Z,243.25
2024-01-12T09:01:37.471Z,238.70
2024-01-12T09:04:04.145Z,239.38
2024-01-12T09:06:30.899Z,242.30
2024-01-12T09:08:57.441Z,239.48
2024-01-12T09:11:23.914Z,243.13
2024-01-12T09:13:50.659Z,240.77
2024-01-12T09:16:17.085Z,242.15
2024-01-12T09:18:43.962Z,235.55
2024-01-12T09:21:16.101Z,239.75
2024-01-12T09:23:43.865Z,243.38
2024-01-12T09:26:12.464Z,244.55
2024-01-12T09:28:40.034Z,244.88
2024-01-12T09:31:07.650Z,241.95
2024-01-12T09:33:34.480Z,254.05
2024-01-12T09:36:01.346Z,244.82
2024-01-12T09:50:48.689Z,248.55
2024-01-12T09:53:15.313Z,247.55
2024-01-12T09:55:41.890Z,245.57
2024-01-12T09:58:11.292Z,241.55
2024-01-12T10:00:40.556Z,242.93
2024-01-12T10:08:07.842Z,229.40
2024-01-12T10:10:34.595Z,244.57
2024-01-12T10:23:05.589Z,240.18
2024-01-12T10:25:32.388Z,234.32
2024-01-12T10:27:59.445Z,236.35
2024-01-12T10:30:27.686Z,233.57
2024-01-12T10:32:55.293Z,244.68
2024-01-12T10:35:22.180Z,237.27
2024-01-12T10:37:50.066Z,237.13
2024-01-12T10:40:17.447Z,229.52
2024-01-12T10:42:49.923Z,231.45
2024-01-12T11:48:03.510Z,232.95
2024-01-12T11:50:30.130Z,234.05
2024-01-12T11:53:01.588Z,234.15
2024-01-12T11:55:28.471Z,231.65
2024-01-12T11:57:55.864Z,231.40
2024-01-12T12:00:24.640Z,237.43
2024-01-12T12:02:55.274Z,237.77
2024-01-12T12:05:24.081Z,244.02
2024-01-12T12:07:50.852Z,240.70
2024-01-12T12:10:21.926Z,242.07
2024-01-12T12:12:53.696Z,242.73
2024-01-12T12:15:20.242Z,248.77
2024-01-12T12:17:49.140Z,240.02
2024-01-12T12:20:16.720Z,238.18
2024-01-12T12:22:45.425Z,247.07
2024-01-12T12:25:16.011Z,237.90
2024-01-12T12:27:44.862Z,246.88
2024-01-12T12:30:15.378Z,240.63
2024-01-12T12:32:44.604Z,240.93
2024-01-12T12:35:16.171Z,240.10
2024-01-12T12:37:43.074Z,237.88
2024-01-12T12:40:12.394Z,241.15
2024-01-12T12:42:42.996Z,233.98
2024-01-12T12:45:15.035Z,241.57
2024-01-12T12:47:47.029Z,232.93
2024-01-12T12:50:14.254Z,229.80
2024-01-12T12:52:42.572Z,242.73
2024-01-12T12:55:09.755Z,234.55
2024-01-12T12:57:39.388Z,241.05
2024-01-12T13:00:11.004Z,236.85
2024-01-12T13:02:40.778Z,231.93
2024-01-12T13:05:09.483Z,234.77
2024-01-12T13:07:35.977Z,240.50
2024-01-12T13:10:02.548Z,238.05
2024-01-12T13:12:30.790Z,245.05
2024-01-12T13:14:57.500Z,235.93
2024-01-12T13:17:30.094Z,247.98
2024-01-12T13:19:56.908Z,243.32
2024-01-12T13:22:32.865Z,241.85
2024-01-12T13:27:28.198Z,229.00
2024-01-12T13:29:56.097Z,227.88
2024-01-12T13:32:22.806Z,227.30
2024-01-12T13:34:49.433Z,233.57
2024-01-12T13:37:19.724Z,227.52
2024-01-12T13:39:48.940Z,238.43
2024-01-12T13:42:15.837Z,240.95
2024-01-12T13:44:43.746Z,242.98
2024-01-12T13:47:10.426Z,243.35
2024-01-12T13:49:39.487Z,244.80
2024-01-12T13:52:09.854Z,243.18
2024-01-12T13:54:36.382Z,242.25
2024-01-12T13:57:04.847Z,234.48
2024-01-12T13:59:40.848Z,238.38
2024-01-12T14:04:34.583Z,235.77
2024-01-12T14:07:01.578Z,239.55
2024-01-12T14:09:30.224Z,242.38
2024-01-12T14:11:57.290Z,239.57
2024-01-12T14:14:24.705Z,242.07
2024-01-12T14:16:51.405Z,245.00
2024-01-12T14:19:18.489Z,238.13
2024-01-12T14:21:45.391Z,240.95
2024-01-12T14:24:13.385Z,237.75
2024-01-12T14:26:40.606Z,240.57
2024-01-12T14:29:09.166Z,235.30
2024-01-12T14:31:36.225Z,243.80
2024-01-12T14:34:03.410Z,234.13
2024-01-12T14:36:30.403Z,232.63
2024-01-12T14:38:57.039Z,238.52
2024-01-12T14:41:23.761Z,236.65
2024-01-12T14:43:50.307Z,246.38
2024-01-12T14:46:16.918Z,235.50
2024-01-12T14:48:43.753Z,240.45
2024-01-12T14:51:10.468Z,233.95
2024-01-12T14:53:39.310Z,237.88
2024-01-12T14:56:09.476Z,227.93
2024-01-12T14:58:37.507Z,237.98
2024-01-12T15:01:04.357Z,231.25
2024-01-12T15:03:31.110Z,230.40
2024-01-12T15:05:57.780Z,226.75
2024-01-12T15:08:25.384Z,229.40
2024-01-12T15:10:52.230Z,236.15
2024-01-12T15:15:46.625Z,243.52
2024-01-12T15:18:13.456Z,233.35
2024-01-12T15:20:40.266Z,232.30
2024-01-12T15:23:07.967Z,235.07
2024-01-12T15:25:34.844Z,231.10
2024-01-12T15:28:01.370Z,227.18
2024-01-12T15:30:28.241Z,231.85
2024-01-12T15:32:56.107Z,230.18
2024-01-12T15:35:23.227Z,225.45
2024-01-12T15:37:49.889Z,223.55
2024-01-12T15:40:16.759Z,227.45
2024-01-12T15:42:48.868Z,227.73
2024-01-12T15:45:18.673Z,234.98
2024-01-12T15:47:45.847Z,232.40
2024-01-12T15:50:13.417Z,225.95
2024-01-12T15:52:40.215Z,237.38
2024-01-12T15:55:08.155Z,229.60
2024-01-12T15:57:34.670Z,233.77
2024-01-12T16:00:01.262Z,238.30
2024-01-12T16:02:28.248Z,233.45
2024-01-12T16:04:54.790Z,230.38
2024-01-12T16:07:21.348Z,232.77
2024-01-12T16:09:47.907Z,245.85
2024-01-12T16:12:14.633Z,244.38
2024-01-12T16:14:43.539Z,235.68
2024-01-12T16:17:10.091Z,234.55
2024-01-12T16:19:48.255Z,242.70
2024-01-12T16:22:15.405Z,234.45
2024-01-12T16:24:42.475Z,235.18
2024-01-12T16:27:09.677Z,239.13
2024-01-12T16:29:38.524Z,239.52
2024-01-12T16:32:05.826Z,244.65
2024-01-12T16:34:32.854Z,238.00
2024-01-12T16:36:59.695Z,238.50
2024-01-12T16:39:26.286Z,241.25
2024-01-12T16:41:57.072Z,232.15
2024-01-12T16:44:26.134Z,243.38
2024-01-12T16:46:55.655Z,238.80
2024-01-12T16:49:22.617Z,242.50
2024-01-12T16:51:49.841Z,239.07
2024-01-12T16:54:16.687Z,232.27
2024-01-12T16:56:43.975Z,238.95
2024-01-12T16:59:13.723Z,232.52
2024-01-12T17:01:44.292Z,234.05
2024-01-12T17:04:10.910Z,233.60
2024-01-12T17:06:41.663Z,227.82
2024-01-12T17:09:09.203Z,241.82
2024-01-12T17:11:36.272Z,238.70
2024-01-12T17:14:03.211Z,232.68
2024-01-12T17:16:34.556Z,228.48
2024-01-12T17:19:01.492Z,237.90
2024-01-12T17:21:28.132Z,247.20
2024-01-12T17:23:55.444Z,243.50
2024-01-12T17:26:23.056Z,239.93
2024-01-12T17:28:50.125Z,232.50
2024-01-12T17:31:17.199Z,231.75
2024-01-12T17:33:43.843Z,235.57
2024-01-12T17:36:10.453Z,237.55
2024-01-12T17:38:37.096Z,232.13
2024-01-12T17:41:04.347Z,238.50
2024-01-12T17:43:31.269Z,236.50
2024-01-12T17:45:58.603Z,243.25
2024-01-12T17:48:25.216Z,232.60
2024-01-12T17:50:51.815Z,232.10
2024-01-12T17:53:18.796Z,230.20
2024-01-12T17:55:46.062Z,233.70
2024-01-12T17:58:12.856Z,233.93
2024-01-12T18:00:40.061Z,236.00
2024-01-12T18:03:06.662Z,236.18
2024-01-12T18:05:33.280Z,236.02
2024-01-12T18:07:59.872Z,239.18
2024-01-12T18:10:26.386Z,235.20
2024-01-12T18:12:53.064Z,236.73
2024-01-12T18:15:19.705Z,237.63
2024-01-12T18:17:48.436Z,238.60
2024-01-12T18:20:15.007Z,228.32
2024-01-12T18:22:41.533Z,229.98
2024-01-12T18:25:09.926Z,225.45
2024-01-12T18:27:39.742Z,222.50
2024-01-12T18:30:07.350Z,231.18
2024-01-12T18:32:34.616Z,223.60
2024-01-12T18:35:01.364Z,230.00
2024-01-12T18:37:27.868Z,224.27
2024-01-12T18:39:54.442Z,224.50
2024-01-12T18:42:21.974Z,222.40
2024-01-12T18:44:48.568Z,231.63
2024-01-12T18:47:15.332Z,232.55
2024-01-12T18:49:41.847Z,225.98
2024-01-12T18:52:08.415Z,229.43
2024-01-12T18:54:34.939Z,232.23
2024-01-12T18:57:02.267Z,226.88
2024-01-12T18:59:28.855Z,223.98
2024-01-12T19:01:56.112Z,224.32
2024-01-12T19:04:23.243Z,221.30
2024-01-12T19:06:49.785Z,227.25
2024-01-12T19:09:18.171Z,228.85
2024-01-12T19:11:45.768Z,224.15
2024-01-12T19:14:13.531Z,230.05
2024-01-12T19:16:40.250Z,229.68
2024-01-12T19:19:07.060Z,230.10
2024-01-12T19:21:33.784Z,224.05
2024-01-12T19:24:00.619Z,226.73
2024-01-12T19:26:27.349Z,222.80
2024-01-12T19:28:53.982Z,226.32
2024-01-12T19:31:24.122Z,224.73
2024-01-12T19:33:51.699Z,229.32
2024-01-12T19:36:19.009Z,226.27
2024-01-12T19:38:45.785Z,224.13
2024-01-12T19:41:21.268Z,227.45
2024-01-12T19:43:50.334Z,224.05
2024-01-12T19:46:17.851Z,226.80
2024-01-12T19:48:45.029Z,230.13
2024-01-12T19:51:11.796Z,224.38
2024-01-12T19:53:38.422Z,228.75
2024-01-12T19:56:05.154Z,223.35
2024-01-12T19:58:39.177Z,232.15
2024-01-12T20:01:10.832Z,225.90
2024-01-12T20:03:40.575Z,229.15
2024-01-12T20:06:07.420Z,221.85
2024-01-12T20:08:34.168Z,229.98
2024-01-12T20:11:02.304Z,233.35
2024-01-12T20:13:30.113Z,223.50
2024-01-12T20:15:59.201Z,220.65
2024-01-12T20:18:25.935Z,223.73
2024-01-12T20:20:52.643Z,225.27
2024-01-12T20:23:19.248Z,225.45
2024-01-12T20:25:45.754Z,220.88
2024-01-12T20:28:12.852Z,219.35
2024-01-12T20:30:39.779Z,225.68
2024-01-12T20:33:06.660Z,222.55
2024-01-12T20:35:33.615Z,223.35
2024-01-12T20:38:00.211Z,224.55
2024-01-12T20:40:26.816Z,224.15
2024-01-12T20:42:54.539Z,222.75
2024-01-12T20:45:21.152Z,225.23
2024-01-12T20:47:47.989Z,218.93
2024-01-12T20:50:16.255Z,219.55
2024-01-12T20:52:42.752Z,222.60
2024-01-12T20:55:09.757Z,225.95
2024-01-12T20:57:36.312Z,220.32
2024-01-12T21:00:04.164Z,225.98
2024-01-12T21:02:30.861Z,228.35
2024-01-12T21:04:57.436Z,222.57
2024-01-12T21:07:24.043Z,227.10
2024-01-12T21:09:50.645Z,225.13
2024-01-12T21:12:17.583Z,222.10
2024-01-12T21:14:44.306Z,227.10
2024-01-12T21:17:10.812Z,223.68
2024-01-12T21:19:38.097Z,224.55
2024-01-12T21:22:04.878Z,221.32
2024-01-12T21:24:31.366Z,220.95
2024-01-12T21:26:57.875Z,223.73
2024-01-12T21:29:24.675Z,222.30
2024-01-12T21:31:51.344Z,223.02
2024-01-12T21:34:17.977Z,223.27
2024-01-12T21:36:44.816Z,227.13
2024-01-12T21:39:13.253Z,228.07
2024-01-12T21:41:40.009Z,223.35
2024-01-12T21:44:06.855Z,221.32
2024-01-12T21:46:34.434Z,227.90
2024-01-12T21:49:01.646Z,223.13
2024-01-12T21:51:28.449Z,225.93
2024-01-12T21:53:55.059Z,223.27
2024-01-12T21:56:23.484Z,225.45
2024-01-12T21:58:50.764Z,223.15
2024-01-12T22:01:17.340Z,222.73
2024-01-12T22:03:44.511Z,224.00
2024-01-12T22:06:11.311Z,224.23
2024-01-12T22:08:38.045Z,227.23
2024-01-12T22:11:04.537Z,222.30
2024-01-12T22:13:31.012Z,226.55
2024-01-12T22:15:57.617Z,228.30
2024-01-12T22:18:24.370Z,227.65
2024-01-12T22:20:52.691Z,223.57
2024-01-12T22:23:19.400Z,223.98
2024-01-12T22:25:45.944Z,219.13
2024-01-12T22:28:12.434Z,220.85
2024-01-12T22:30:38.999Z,224.90
2024-01-12T22:33:06.164Z,221.63
2024-01-12T22:35:32.839Z,224.85
2024-01-12T22:37:59.405Z,224.88
2024-01-12T22:40:25.933Z,228.07
2024-01-12T22:42:52.475Z,225.68
2024-01-12T22:45:19.043Z,225.25
2024-01-12T22:47:45.919Z,227.88
2024-01-12T22:50:12.601Z,226.35
2024-01-12T22:52:39.223Z,229.35
2024-01-12T22:55:06.395Z,225.35
2024-01-12T22:57:32.938Z,230.07
2024-01-12T22:59:59.548Z,224.98
2024-01-12T23:02:27.598Z,226.85
2024-01-12T23:04:55.130Z,223.75
2024-01-12T23:07:21.641Z,223.57
2024-01-12T23:09:48.274Z,223.00
2024-01-12T23:12:14.883Z,228.40
2024-01-12T23:14:41.443Z,234.50
2024-01-12T23:17:09.076Z,223.25
2024-01-12T23:19:38.753Z,222.55
2024-01-12T23:22:05.320Z,226.98
2024-01-12T23:24:31.944Z,226.82
2024-01-12T23:26:58.540Z,225.35
2024-01-12T23:29:29.560Z,227.98
2024-01-12T23:31:56.813Z,229.45
2024-01-12T23:34:23.701Z,226.18
2024-01-12T23:36:50.348Z,228.07
2024-01-12T23:39:16.901Z,229.40
2024-01-12T23:41:43.449Z,228.38
2024-01-12T23:44:10.266Z,232.65
2024-01-12T23:46:36.894Z,240.32
2024-01-12T23:49:03.617Z,238.85
2024-01-12T23:51:30.426Z,235.23
2024-01-12T23:53:56.982Z,237.90
2024-01-12T23:56:23.605Z,236.73
2024-01-12T23:58:50.179Z,231.95
